Time;durP1;ratioP1;P1;durP2;ratioP2;P2;SDS_P1;SDS_P2;PMS_P1;PMS_P2;Temp;Humidity;BMP_temperature;BMP_pressure;BME280_temperature;BME280_humidity;BME280_pressure;Samples;Min_cycle;Max_cycle;Signal;HPM_P1;HPM_P2
2021/08/24 00:00:28;;;;;;;0.35;0.30;;;;;;;;;;5001217;28;20904;-54
2021/08/24 00:02:54;;;;;;;0.47;0.20;;;;;;;;;;4996021;28;20037;-52
2021/08/24 00:05:23;;;;;;;0.20;0.20;;;;;;;;;;4995990;28;20066;-51
2021/08/24 00:07:49;;;;;;;0.20;0.20;;;;;;;;;;4996419;28;20052;-51
2021/08/24 00:10:15;;;;;;;0.30;0.30;;;;;;;;;;4996754;28;20483;-52
2021/08/24 00:12:41;;;;;;;0.28;0.20;;;;;;;;;;4996242;28;20084;-53
2021/08/24 00:15:07;;;;;;;0.20;0.20;;;;;;;;;;5004900;28;20041;-51
2021/08/24 00:17:33;;;;;;;0.20;0.20;;;;;;;;;;5000111;28;20096;-52
2021/08/24 00:19:58;;;;;;;1.38;0.30;;;;;;;;;;4995387;28;20454;-52
2021/08/24 00:22:24;;;;;;;0.20;0.20;;;;;;;;;;5010400;28;20099;-53
2021/08/24 00:24:50;;;;;;;0.52;0.20;;;;;;;;;;4990398;28;20048;-51
2021/08/24 00:27:16;;;;;;;0.40;0.30;;;;;;;;;;4992531;28;20082;-53
2021/08/24 00:29:42;;;;;;;0.50;0.40;;;;;;;;;;5012823;28;20038;-53
2021/08/24 00:32:08;;;;;;;0.50;0.30;;;;;;;;;;4994707;28;20037;-54
2021/08/24 00:34:34;;;;;;;0.45;0.30;;;;;;;;;;4995377;28;20029;-51
2021/08/24 00:36:59;;;;;;;0.85;0.30;;;;;;;;;;5006591;28;20099;-55
2021/08/24 00:39:25;;;;;;;0.75;0.32;;;;;;;;;;5005175;28;20046;-51
2021/08/24 00:41:51;;;;;;;0.25;0.20;;;;;;;;;;5001058;28;20057;-52
2021/08/24 00:44:17;;;;;;;0.30;0.30;;;;;;;;;;4996601;28;20049;-53
2021/08/24 00:46:51;;;;;;;0.22;0.22;;;;;;;;;;5000456;28;20715;-54
2021/08/24 00:49:22;;;;;;;0.55;0.30;;;;;;;;;;4997984;28;20046;-54
2021/08/24 00:51:49;;;;;;;1.00;0.40;;;;;;;;;;4996591;28;20046;-54
2021/08/24 00:54:17;;;;;;;0.82;0.40;;;;;;;;;;4996883;28;20392;-54
2021/08/24 00:56:46;;;;;;;0.95;0.40;;;;;;;;;;5003914;28;20499;-55
2021/08/24 00:59:12;;;;;;;0.30;0.30;;;;;;;;;;4991764;28;20145;-51
2021/08/24 01:01:37;;;;;;;1.00;0.55;;;;;;;;;;4990231;28;20038;-52
2021/08/24 01:04:03;;;;;;;0.55;0.30;;;;;;;;;;4991884;28;21298;-54
2021/08/24 01:06:38;;;;;;;0.30;0.30;;;;;;;;;;5003428;28;20041;-53
2021/08/24 01:09:23;;;;;;;0.98;0.30;;;;;;;;;;4996568;28;20061;-51
2021/08/24 01:11:55;;;;;;;0.28;0.25;;;;;;;;;;5009666;28;20038;-51
2021/08/24 01:14:29;;;;;;;0.20;0.20;;;;;;;;;;5004374;28;20201;-53
2021/08/24 01:17:04;;;;;;;0.22;0.20;;;;;;;;;;4990682;28;20034;-53
2021/08/24 01:19:40;;;;;;;0.32;0.30;;;;;;;;;;5001369;28;20064;-50
2021/08/24 01:22:06;;;;;;;0.57;0.30;;;;;;;;;;5016198;28;20038;-52
2021/08/24 01:24:51;;;;;;;0.68;0.30;;;;;;;;;;5014276;28;20663;-53
2021/08/24 01:27:28;;;;;;;0.28;0.28;;;;;;;;;;5014282;28;20053;-53
2021/08/24 01:30:02;;;;;;;0.32;0.30;;;;;;;;;;5014882;28;20033;-52
2021/08/24 01:32:37;;;;;;;0.20;0.20;;;;;;;;;;5013660;28;20042;-53
2021/08/24 01:35:18;;;;;;;0.20;0.20;;;;;;;;;;5015320;28;20371;-50
2021/08/24 01:37:47;;;;;;;0.43;0.30;;;;;;;;;;5014759;28;20054;-53
2021/08/24 01:40:15;;;;;;;0.20;0.20;;;;;;;;;;5014846;28;20057;-50
2021/08/24 01:42:41;;;;;;;0.20;0.20;;;;;;;;;;5013800;28;20045;-50
2021/08/24 01:45:15;;;;;;;0.25;0.20;;;;;;;;;;5015248;28;20475;-52
2021/08/24 01:47:47;;;;;;;0.22;0.22;;;;;;;;;;5014263;28;20433;-52
2021/08/24 01:50:32;;;;;;;0.75;0.30;;;;;;;;;;5018020;28;20033;-53
2021/08/24 01:53:16;;;;;;;0.38;0.30;;;;;;;;;;5018096;28;20045;-53
2021/08/24 01:55:47;;;;;;;0.32;0.30;;;;;;;;;;5003340;28;20125;-53
2021/08/24 01:58:26;;;;;;;0.25;0.25;;;;;;;;;;4994137;28;20066;-53
2021/08/24 02:00:54;;;;;;;0.70;0.40;;;;;;;;;;5003282;28;20157;-53
2021/08/24 02:03:24;;;;;;;0.20;0.20;;;;;;;;;;4998668;28;20038;-58
2021/08/24 02:05:59;;;;;;;0.30;0.30;;;;;;;;;;4996711;28;20092;-51
2021/08/24 02:08:26;;;;;;;0.25;0.25;;;;;;;;;;4994025;28;20049;-53
2021/08/24 02:10:54;;;;;;;0.40;0.30;;;;;;;;;;4995258;28;20049;-52
2021/08/24 02:13:21;;;;;;;0.28;0.28;;;;;;;;;;4997823;28;20490;-51
2021/08/24 02:15:50;;;;;;;0.43;0.30;;;;;;;;;;4997054;28;20165;-51
2021/08/24 02:18:18;;;;;;;0.52;0.30;;;;;;;;;;4995989;28;20065;-52
2021/08/24 02:20:47;;;;;;;0.30;0.30;;;;;;;;;;4997698;28;20041;-51
2021/08/24 02:23:19;;;;;;;0.30;0.30;;;;;;;;;;4994169;28;20129;-52
2021/08/24 02:25:47;;;;;;;0.40;0.30;;;;;;;;;;5016070;28;20037;-53
2021/08/24 02:28:21;;;;;;;0.45;0.30;;;;;;;;;;5018263;28;20643;-52
2021/08/24 02:31:10;;;;;;;1.70;0.40;;;;;;;;;;5008532;28;20037;-53
2021/08/24 02:34:05;;;;;;;0.50;0.30;;;;;;;;;;5013660;28;20102;-51
2021/08/24 02:36:32;;;;;;;0.85;0.38;;;;;;;;;;4996272;28;20581;-51
2021/08/24 02:39:03;;;;;;;0.60;0.38;;;;;;;;;;4999367;28;20077;-54
2021/08/24 02:41:33;;;;;;;0.40;0.30;;;;;;;;;;4997916;28;20057;-52
2021/08/24 02:44:14;;;;;;;0.30;0.30;;;;;;;;;;4999302;28;20053;-51
2021/08/24 02:46:41;;;;;;;0.32;0.30;;;;;;;;;;5000571;28;20513;-51
2021/08/24 02:49:12;;;;;;;0.32;0.30;;;;;;;;;;5017667;28;20041;-52
2021/08/24 02:51:38;;;;;;;0.30;0.30;;;;;;;;;;5016105;28;20045;-53
2021/08/24 02:54:15;;;;;;;0.47;0.30;;;;;;;;;;5017569;28;20048;-52
2021/08/24 02:56:41;;;;;;;1.05;0.40;;;;;;;;;;5016538;28;20068;-54
2021/08/24 02:59:07;;;;;;;1.23;0.40;;;;;;;;;;5017363;28;20461;-51
2021/08/24 03:01:33;;;;;;;0.63;0.40;;;;;;;;;;5016788;28;20118;-51
2021/08/24 03:03:59;;;;;;;0.30;0.22;;;;;;;;;;5016736;28;20061;-53
2021/08/24 03:06:27;;;;;;;0.20;0.20;;;;;;;;;;5017384;28;20134;-52
2021/08/24 03:08:53;;;;;;;0.28;0.28;;;;;;;;;;5017010;28;20134;-50
2021/08/24 03:11:23;;;;;;;1.08;0.32;;;;;;;;;;5015443;28;20034;-52
2021/08/24 03:13:55;;;;;;;1.52;0.43;;;;;;;;;;5018107;28;20445;-52
2021/08/24 03:16:23;;;;;;;3.72;0.50;;;;;;;;;;5015768;28;20039;-53
2021/08/24 03:18:51;;;;;;;1.13;0.40;;;;;;;;;;5015986;28;20111;-54
2021/08/24 03:21:19;;;;;;;0.98;0.50;;;;;;;;;;5015917;28;20172;-54
2021/08/24 03:23:46;;;;;;;0.95;0.40;;;;;;;;;;5016807;28;20092;-50
2021/08/24 03:26:13;;;;;;;1.55;0.50;;;;;;;;;;5000407;28;20466;-52
2021/08/24 03:28:40;;;;;;;1.42;0.55;;;;;;;;;;4994844;28;20944;-50
2021/08/24 03:31:06;;;;;;;1.55;0.52;;;;;;;;;;4995799;28;20438;-54
2021/08/24 03:33:32;;;;;;;1.58;0.60;;;;;;;;;;5011095;28;20045;-53
2021/08/24 03:35:58;;;;;;;2.85;0.90;;;;;;;;;;5012815;28;20390;-52
2021/08/24 03:38:24;;;;;;;4.15;0.70;;;;;;;;;;5011531;28;20037;-52
2021/08/24 03:40:50;;;;;;;2.22;0.60;;;;;;;;;;4997689;28;20045;-52
2021/08/24 03:43:15;;;;;;;3.38;0.68;;;;;;;;;;5009499;28;20053;-54
2021/08/24 03:45:41;;;;;;;1.65;0.60;;;;;;;;;;5000561;28;20128;-54
2021/08/24 03:48:07;;;;;;;1.80;0.60;;;;;;;;;;4991917;28;20815;-54
2021/08/24 03:50:34;;;;;;;2.03;0.70;;;;;;;;;;4989037;28;20547;-53
2021/08/24 03:52:59;;;;;;;0.88;0.40;;;;;;;;;;4988078;28;20046;-51
2021/08/24 03:55:25;;;;;;;1.48;0.52;;;;;;;;;;4986999;28;20065;-51
2021/08/24 03:57:51;;;;;;;1.08;0.50;;;;;;;;;;4987557;28;20076;-53
2021/08/24 04:00:17;;;;;;;1.02;0.43;;;;;;;;;;5000180;28;20656;-51
2021/08/24 04:02:43;;;;;;;1.45;0.50;;;;;;;;;;4992720;28;20045;-50
2021/08/24 04:05:10;;;;;;;1.40;0.43;;;;;;;;;;4996113;28;20037;-54
2021/08/24 04:07:36;;;;;;;1.60;0.52;;;;;;;;;;5003139;28;20115;-52
2021/08/24 04:10:03;;;;;;;0.93;0.40;;;;;;;;;;5010596;28;20037;-50
2021/08/24 04:12:29;;;;;;;2.03;0.70;;;;;;;;;;5010192;28;20041;-53
2021/08/24 04:14:54;;;;;;;1.92;0.60;;;;;;;;;;5004209;28;20093;-50
2021/08/24 04:17:20;;;;;;;1.50;0.50;;;;;;;;;;4995079;28;20049;-52
2021/08/24 04:19:46;;;;;;;2.55;0.80;;;;;;;;;;5012694;28;20068;-52
2021/08/24 04:22:17;;;;;;;1.83;0.68;;;;;;;;;;5012766;28;20115;-53
2021/08/24 04:24:42;;;;;;;1.60;0.63;;;;;;;;;;5009442;28;20076;-50
2021/08/24 04:27:08;;;;;;;1.50;0.52;;;;;;;;;;4994108;28;20052;-53
2021/08/24 04:29:34;;;;;;;1.80;0.70;;;;;;;;;;4990709;28;20042;-51
2021/08/24 04:32:00;;;;;;;2.05;0.60;;;;;;;;;;4986548;28;20061;-53
2021/08/24 04:34:26;;;;;;;1.52;0.60;;;;;;;;;;4986662;28;20042;-53
2021/08/24 04:36:51;;;;;;;2.03;0.60;;;;;;;;;;4989012;28;20038;-53
2021/08/24 04:39:18;;;;;;;1.77;0.63;;;;;;;;;;4997734;28;20129;-52
2021/08/24 04:41:44;;;;;;;2.03;0.60;;;;;;;;;;5009705;28;20134;-54
2021/08/24 04:44:10;;;;;;;2.35;0.63;;;;;;;;;;4991575;28;20132;-53
2021/08/24 04:46:35;;;;;;;2.10;0.63;;;;;;;;;;4998939;28;20517;-54
2021/08/24 04:49:01;;;;;;;0.90;0.43;;;;;;;;;;4998518;28;20627;-51
2021/08/24 04:51:27;;;;;;;2.35;0.77;;;;;;;;;;4992605;28;20042;-53
2021/08/24 04:53:53;;;;;;;0.90;0.40;;;;;;;;;;4998899;28;20049;-60
2021/08/24 04:56:19;;;;;;;2.13;0.70;;;;;;;;;;5001056;28;20030;-50
2021/08/24 04:58:45;;;;;;;1.45;0.60;;;;;;;;;;4995694;28;20034;-51
2021/08/24 05:01:11;;;;;;;3.05;0.50;;;;;;;;;;4994139;28;20207;-53
2021/08/24 05:03:36;;;;;;;2.10;0.68;;;;;;;;;;4994645;28;20037;-53
2021/08/24 05:06:02;;;;;;;2.28;0.60;;;;;;;;;;4995830;28;20132;-53
2021/08/24 05:08:28;;;;;;;1.80;0.50;;;;;;;;;;4993314;28;20069;-53
2021/08/24 05:10:54;;;;;;;2.97;0.68;;;;;;;;;;4994646;28;20470;-52
2021/08/24 05:13:20;;;;;;;1.33;0.50;;;;;;;;;;5002945;28;20061;-53
2021/08/24 05:15:46;;;;;;;1.35;0.47;;;;;;;;;;5007825;28;20066;-54
2021/08/24 05:18:11;;;;;;;1.95;0.50;;;;;;;;;;5002794;28;20234;-54
2021/08/24 05:20:37;;;;;;;1.73;0.50;;;;;;;;;;4992248;28;23848;-52
2021/08/24 05:23:03;;;;;;;0.98;0.40;;;;;;;;;;4998582;28;20125;-53
2021/08/24 05:25:29;;;;;;;0.90;0.38;;;;;;;;;;4993982;28;20049;-52
2021/08/24 05:27:55;;;;;;;1.20;0.47;;;;;;;;;;5011425;28;20049;-54
2021/08/24 05:30:23;;;;;;;1.23;0.50;;;;;;;;;;5001619;28;20045;-51
2021/08/24 05:32:49;;;;;;;0.98;0.40;;;;;;;;;;5019207;28;20045;-54
2021/08/24 05:35:15;;;;;;;0.95;0.45;;;;;;;;;;4999201;28;20042;-54
2021/08/24 05:37:41;;;;;;;1.67;0.50;;;;;;;;;;5003564;28;20107;-55
2021/08/24 05:40:08;;;;;;;1.48;0.50;;;;;;;;;;5001209;28;20041;-52
2021/08/24 05:42:33;;;;;;;1.05;0.40;;;;;;;;;;4995911;28;20050;-52
2021/08/24 05:44:59;;;;;;;1.42;0.60;;;;;;;;;;5007389;28;20084;-52
2021/08/24 05:47:27;;;;;;;1.05;0.50;;;;;;;;;;5019892;28;20052;-51
2021/08/24 05:49:53;;;;;;;0.68;0.40;;;;;;;;;;5007132;28;20033;-54
2021/08/24 05:52:19;;;;;;;1.13;0.45;;;;;;;;;;5010657;28;20044;-53
2021/08/24 05:54:45;;;;;;;1.52;0.55;;;;;;;;;;5017253;28;20049;-53
2021/08/24 05:57:11;;;;;;;0.57;0.40;;;;;;;;;;5006592;28;20083;-54
2021/08/24 05:59:37;;;;;;;1.38;0.50;;;;;;;;;;4996327;28;20262;-54
2021/08/24 06:02:03;;;;;;;0.85;0.40;;;;;;;;;;5009090;28;20435;-53
2021/08/24 06:04:29;;;;;;;1.00;0.40;;;;;;;;;;4995398;28;20038;-52
2021/08/24 06:06:55;;;;;;;1.23;0.55;;;;;;;;;;5001112;28;20421;-51
2021/08/24 06:09:21;;;;;;;1.25;0.50;;;;;;;;;;5012680;28;20045;-54
2021/08/24 06:11:50;;;;;;;0.85;0.38;;;;;;;;;;4994716;28;20026;-55
2021/08/24 06:14:16;;;;;;;1.45;0.40;;;;;;;;;;5010097;28;20049;-53
2021/08/24 06:16:42;;;;;;;1.60;0.50;;;;;;;;;;4991434;28;20164;-52
2021/08/24 06:19:09;;;;;;;1.75;0.52;;;;;;;;;;5012915;28;20048;-52
2021/08/24 06:21:35;;;;;;;0.75;0.40;;;;;;;;;;5008971;28;20045;-51
2021/08/24 06:24:02;;;;;;;1.95;0.52;;;;;;;;;;5018697;28;20042;-53
2021/08/24 06:26:28;;;;;;;1.50;0.50;;;;;;;;;;5019622;28;20088;-50
2021/08/24 06:28:54;;;;;;;0.77;0.40;;;;;;;;;;5019677;28;20053;-54
2021/08/24 06:31:21;;;;;;;2.13;0.60;;;;;;;;;;5011416;28;20033;-53
2021/08/24 06:33:47;;;;;;;1.85;0.50;;;;;;;;;;5016636;28;20470;-51
2021/08/24 06:36:14;;;;;;;0.82;0.38;;;;;;;;;;5003734;28;20529;-51
2021/08/24 06:38:41;;;;;;;1.00;0.38;;;;;;;;;;4997314;28;21930;-54
2021/08/24 06:41:07;;;;;;;0.75;0.40;;;;;;;;;;5005265;28;20042;-54
2021/08/24 06:43:33;;;;;;;0.77;0.40;;;;;;;;;;5018528;28;20060;-53
2021/08/24 06:45:59;;;;;;;0.90;0.40;;;;;;;;;;5005747;28;20057;-53
2021/08/24 06:48:25;;;;;;;1.38;0.50;;;;;;;;;;5006453;28;20054;-54
2021/08/24 06:50:51;;;;;;;2.08;0.63;;;;;;;;;;5015184;28;20048;-52
2021/08/24 06:53:17;;;;;;;2.85;0.47;;;;;;;;;;5018510;28;20601;-54
2021/08/24 06:55:43;;;;;;;1.27;0.45;;;;;;;;;;5001872;28;20506;-55
2021/08/24 06:58:10;;;;;;;1.40;0.45;;;;;;;;;;5001040;28;20120;-52
2021/08/24 07:00:36;;;;;;;1.50;0.50;;;;;;;;;;5016643;28;20172;-52
2021/08/24 07:03:02;;;;;;;2.47;0.70;;;;;;;;;;5017792;28;20037;-54
2021/08/24 07:05:29;;;;;;;0.80;0.40;;;;;;;;;;5003326;28;20100;-54
2021/08/24 07:07:55;;;;;;;0.52;0.35;;;;;;;;;;5005067;28;20049;-55
2021/08/24 07:10:21;;;;;;;0.85;0.40;;;;;;;;;;5015801;28;20048;-54
2021/08/24 07:12:47;;;;;;;1.45;0.63;;;;;;;;;;5015519;28;20402;-52
2021/08/24 07:15:13;;;;;;;1.45;0.60;;;;;;;;;;5005877;28;20494;-51
2021/08/24 07:17:39;;;;;;;1.77;0.60;;;;;;;;;;4992291;28;20140;-54
2021/08/24 07:20:06;;;;;;;2.38;0.50;;;;;;;;;;4993182;28;20038;-55
2021/08/24 07:22:32;;;;;;;2.83;0.70;;;;;;;;;;5005578;28;20034;-54
2021/08/24 07:25:00;;;;;;;1.02;0.50;;;;;;;;;;4996625;28;20042;-51
2021/08/24 07:27:26;;;;;;;2.28;0.70;;;;;;;;;;5005060;28;20380;-54
2021/08/24 07:29:52;;;;;;;2.38;0.82;;;;;;;;;;4991929;28;20042;-54
2021/08/24 07:32:18;;;;;;;1.25;0.55;;;;;;;;;;5000287;28;20045;-54
2021/08/24 07:34:43;;;;;;;1.70;0.68;;;;;;;;;;4998635;28;21019;-54
2021/08/24 07:37:09;;;;;;;1.55;0.55;;;;;;;;;;4995769;28;20410;-54
2021/08/24 07:39:35;;;;;;;0.90;0.45;;;;;;;;;;4991938;28;20073;-52
2021/08/24 07:42:01;;;;;;;1.58;0.52;;;;;;;;;;4991750;28;20045;-55
2021/08/24 07:44:31;;;;;;;1.15;0.60;;;;;;;;;;5001006;28;20454;-54
2021/08/24 07:46:57;;;;;;;1.63;0.70;;;;;;;;;;4996060;28;20396;-54
2021/08/24 07:49:23;;;;;;;2.30;0.80;;;;;;;;;;4989418;28;20034;-53
2021/08/24 07:51:49;;;;;;;2.20;0.75;;;;;;;;;;4997255;28;20051;-54
2021/08/24 07:54:15;;;;;;;1.25;0.50;;;;;;;;;;5015767;28;20076;-54
2021/08/24 07:56:40;;;;;;;1.77;0.63;;;;;;;;;;5015340;28;20151;-54
2021/08/24 07:59:06;;;;;;;1.38;0.50;;;;;;;;;;5015976;28;20041;-53
2021/08/24 08:01:32;;;;;;;2.00;0.63;;;;;;;;;;5016212;28;20609;-54
2021/08/24 08:03:58;;;;;;;2.45;0.60;;;;;;;;;;5016032;28;20041;-55
2021/08/24 08:06:24;;;;;;;2.05;0.70;;;;;;;;;;5015819;28;20064;-54
2021/08/24 08:08:50;;;;;;;2.13;0.85;;;;;;;;;;5015932;28;20050;-53
2021/08/24 08:11:16;;;;;;;1.40;0.50;;;;;;;;;;5015702;28;20095;-54
2021/08/24 08:13:41;;;;;;;1.88;0.75;;;;;;;;;;5016825;28;20119;-54
2021/08/24 08:16:07;;;;;;;2.13;0.80;;;;;;;;;;5016633;28;20430;-54
2021/08/24 08:18:33;;;;;;;1.90;0.75;;;;;;;;;;5015643;28;21968;-55
2021/08/24 08:20:59;;;;;;;2.75;0.90;;;;;;;;;;5017571;28;20112;-53
2021/08/24 08:23:25;;;;;;;3.10;0.80;;;;;;;;;;5014793;28;20037;-54
2021/08/24 08:25:50;;;;;;;8.75;0.90;;;;;;;;;;5017955;28;20559;-55
2021/08/24 08:28:17;;;;;;;2.35;0.77;;;;;;;;;;5015820;28;20060;-53
2021/08/24 08:30:46;;;;;;;1.38;0.60;;;;;;;;;;5013483;28;20049;-54
2021/08/24 08:33:12;;;;;;;1.10;0.60;;;;;;;;;;5014639;28;20056;-55
2021/08/24 08:35:38;;;;;;;2.60;0.85;;;;;;;;;;5014067;28;20119;-55
2021/08/24 08:38:04;;;;;;;2.42;1.00;;;;;;;;;;5016035;28;20026;-54
2021/08/24 08:40:39;;;;;;;2.45;0.77;;;;;;;;;;5014361;28;20033;-54
2021/08/24 08:43:09;;;;;;;3.22;1.02;;;;;;;;;;5015713;28;20797;-51
2021/08/24 08:45:35;;;;;;;3.75;1.10;;;;;;;;;;5014813;28;22125;-52
2021/08/24 08:48:20;;;;;;;2.25;0.75;;;;;;;;;;5014609;28;20600;-55
2021/08/24 08:50:51;;;;;;;5.20;1.33;;;;;;;;;;4998792;28;20069;-52
2021/08/24 08:53:21;;;;;;;4.30;1.73;;;;;;;;;;4999175;28;20045;-51
2021/08/24 08:56:01;;;;;;;2.85;0.88;;;;;;;;;;5000010;28;20041;-54
2021/08/24 08:58:45;;;;;;;2.55;0.93;;;;;;;;;;5005067;28;20045;-54
2021/08/24 09:01:10;;;;;;;;;;;;;;;;;;5000887;28;20050;-54
2021/08/24 09:03:43;;;;;;;5.50;1.60;;;;;;;;;;5016101;28;20290;-52
2021/08/24 09:06:10;;;;;;;2.60;1.05;;;;;;;;;;5010013;28;20107;-51
2021/08/24 09:08:38;;;;;;;4.10;1.60;;;;;;;;;;5003941;28;20141;-53
2021/08/24 09:11:05;;;;;;;3.53;1.50;;;;;;;;;;5000486;28;20046;-54
2021/08/24 09:13:40;;;;;;;4.20;1.25;;;;;;;;;;5003721;28;20099;-52
2021/08/24 09:16:35;;;;;;;3.42;1.33;;;;;;;;;;5005314;28;20303;-52
2021/08/24 09:19:19;;;;;;;3.80;1.27;;;;;;;;;;5005156;28;20046;-54
2021/08/24 09:21:46;;;;;;;3.00;1.25;;;;;;;;;;5013529;28;20068;-53
2021/08/24 09:24:17;;;;;;;2.53;1.17;;;;;;;;;;5006638;28;20088;-55
2021/08/24 09:26:52;;;;;;;3.30;1.20;;;;;;;;;;4999442;28;20060;-53
2021/08/24 09:29:19;;;;;;;3.67;1.40;;;;;;;;;;4998949;28;20046;-52
2021/08/24 09:31:46;;;;;;;5.95;1.40;;;;;;;;;;4995565;28;20107;-55
2021/08/24 09:34:14;;;;;;;5.47;1.65;;;;;;;;;;5006553;28;20040;-51
2021/08/24 09:36:40;;;;;;;3.80;1.50;;;;;;;;;;5014125;28;20045;-54
2021/08/24 09:39:05;;;;;;;3.90;1.02;;;;;;;;;;4994844;28;20145;-55
2021/08/24 09:41:33;;;;;;;3.58;1.30;;;;;;;;;;5001973;28;20042;-54
2021/08/24 09:44:17;;;;;;;3.25;1.40;;;;;;;;;;5000785;28;20044;-53
2021/08/24 09:46:44;;;;;;;3.28;1.33;;;;;;;;;;5003927;28;20049;-54
2021/08/24 09:49:22;;;;;;;3.75;1.45;;;;;;;;;;5000290;28;20046;-55
2021/08/24 09:51:50;;;;;;;4.68;1.38;;;;;;;;;;4996855;28;20042;-55
2021/08/24 09:54:25;;;;;;;3.90;1.60;;;;;;;;;;5014571;28;20443;-54
2021/08/24 09:56:56;;;;;;;6.25;1.40;;;;;;;;;;5002769;28;20971;-54
2021/08/24 09:59:27;;;;;;;4.15;1.20;;;;;;;;;;4997469;28;20050;-55
2021/08/24 10:01:53;;;;;;;4.30;2.00;;;;;;;;;;5005262;28;20037;-54
2021/08/24 10:04:19;;;;;;;4.28;1.65;;;;;;;;;;5006487;28;20052;-54
2021/08/24 10:06:54;;;;;;;4.63;1.75;;;;;;;;;;5006861;28;20045;-55
2021/08/24 10:09:28;;;;;;;4.20;1.73;;;;;;;;;;5000836;28;20057;-54
2021/08/24 10:12:13;;;;;;;4.60;1.85;;;;;;;;;;4989954;28;20051;-54
2021/08/24 10:14:39;;;;;;;4.40;1.73;;;;;;;;;;4989153;28;20176;-54
2021/08/24 10:17:10;;;;;;;4.18;1.80;;;;;;;;;;4989773;28;20531;-53
2021/08/24 10:19:40;;;;;;;3.97;1.65;;;;;;;;;;4988642;28;20042;-54
2021/08/24 10:22:09;;;;;;;3.83;1.52;;;;;;;;;;4990662;28;20038;-55
2021/08/24 10:24:37;;;;;;;4.05;1.80;;;;;;;;;;5005049;28;20037;-52
2021/08/24 10:27:08;;;;;;;7.70;2.03;;;;;;;;;;5018210;28;20052;-54
2021/08/24 10:29:39;;;;;;;3.53;1.48;;;;;;;;;;5016462;28;20033;-54
2021/08/24 10:32:07;;;;;;;4.15;1.60;;;;;;;;;;5018361;28;20109;-55
2021/08/24 10:34:36;;;;;;;4.53;1.50;;;;;;;;;;5016874;28;20045;-54
2021/08/24 10:37:20;;;;;;;4.65;1.80;;;;;;;;;;5017163;28;20140;-54
2021/08/24 10:39:46;;;;;;;4.00;1.35;;;;;;;;;;5017883;28;20450;-54
2021/08/24 10:42:19;;;;;;;3.60;1.35;;;;;;;;;;5008875;28;20060;-54
2021/08/24 10:44:45;;;;;;;;;;;;;;;;;;4998727;28;20629;-54
2021/08/24 10:47:16;;;;;;;2.60;1.17;;;;;;;;;;4992474;28;20061;-51
2021/08/24 10:49:42;;;;;;;3.70;1.67;;;;;;;;;;4989711;28;20045;-54
2021/08/24 10:52:12;;;;;;;4.95;1.67;;;;;;;;;;4996343;28;20557;-53
2021/08/24 10:54:53;;;;;;;4.88;1.83;;;;;;;;;;4997162;28;20970;-53
2021/08/24 10:57:31;;;;;;;3.15;1.38;;;;;;;;;;4995179;28;20089;-51
2021/08/24 11:00:03;;;;;;;3.97;1.85;;;;;;;;;;5018263;28;20041;-52
2021/08/24 11:02:38;;;;;;;4.53;1.77;;;;;;;;;;5018422;28;20048;-52
2021/08/24 11:05:04;;;;;;;5.07;2.00;;;;;;;;;;5016932;28;20044;-52
2021/08/24 11:07:45;;;;;;;4.15;1.70;;;;;;;;;;5016850;28;20049;-54
2021/08/24 11:10:29;;;;;;;4.18;1.70;;;;;;;;;;5017919;28;20049;-54
2021/08/24 11:12:55;;;;;;;3.65;1.60;;;;;;;;;;5016856;28;20037;-53
2021/08/24 11:15:24;;;;;;;5.05;2.05;;;;;;;;;;5015606;28;20095;-54
2021/08/24 11:18:02;;;;;;;4.28;1.88;;;;;;;;;;5016904;28;20675;-53
2021/08/24 11:20:34;;;;;;;4.07;1.48;;;;;;;;;;5007165;28;20053;-53
2021/08/24 11:23:05;;;;;;;7.47;2.22;;;;;;;;;;5028397;28;20490;-55
2021/08/24 11:25:48;;;;;;;4.80;2.10;;;;;;;;;;5016801;28;20037;-52
2021/08/24 11:28:22;;;;;;;4.72;1.77;;;;;;;;;;5016183;28;20064;-53
2021/08/24 11:31:20;;;;;;;4.70;1.88;;;;;;;;;;4996333;28;20034;-54
2021/08/24 11:33:56;;;;;;;3.47;1.48;;;;;;;;;;4993799;28;21985;-52
2021/08/24 11:36:34;;;;;;;3.88;1.42;;;;;;;;;;4996156;28;20402;-54
2021/08/24 11:39:23;;;;;;;5.43;1.83;;;;;;;;;;4990884;28;20092;-53
2021/08/24 11:42:02;;;;;;;4.93;2.00;;;;;;;;;;5082493;27;20487;-55
2021/08/24 11:44:46;;;;;;;3.55;1.60;;;;;;;;;;5065298;28;20033;-53
2021/08/24 11:47:14;;;;;;;4.50;1.50;;;;;;;;;;5073456;28;20059;-54
2021/08/24 11:49:48;;;;;;;4.22;1.83;;;;;;;;;;5072986;28;20363;-54
2021/08/24 11:52:34;;;;;;;4.78;1.70;;;;;;;;;;5073613;28;20044;-55
2021/08/24 11:55:19;;;;;;;4.63;1.70;;;;;;;;;;5073823;28;20397;-57
2021/08/24 11:58:03;;;;;;;5.35;2.05;;;;;;;;;;5070891;28;21984;-54
2021/08/24 12:00:28;;;;;;;;;;;;;;;;;;5074118;28;20055;-55
2021/08/24 12:02:54;;;;;;;4.03;1.55;;;;;;;;;;5073581;28;19920;-54
2021/08/24 12:05:24;;;;;;;4.90;1.92;;;;;;;;;;5072257;28;20032;-52
2021/08/24 12:07:54;;;;;;;5.03;1.55;;;;;;;;;;5073689;28;20093;-54
2021/08/24 12:10:26;;;;;;;5.40;1.65;;;;;;;;;;5072487;28;20036;-54
2021/08/24 12:12:53;;;;;;;3.42;1.70;;;;;;;;;;5073552;28;20041;-54
2021/08/24 12:15:36;;;;;;;4.55;1.70;;;;;;;;;;5104276;27;20060;-54
2021/08/24 12:18:07;;;;;;;4.70;1.75;;;;;;;;;;5073269;28;20667;-54
2021/08/24 12:20:44;;;;;;;4.03;1.60;;;;;;;;;;5072502;28;20077;-55
2021/08/24 12:23:12;;;;;;;5.63;1.70;;;;;;;;;;5073275;28;20036;-52
2021/08/24 12:25:41;;;;;;;4.47;1.88;;;;;;;;;;5072339;28;20051;-52
2021/08/24 12:28:09;;;;;;;4.28;1.58;;;;;;;;;;5072768;28;20374;-53
2021/08/24 12:30:55;;;;;;;4.70;1.77;;;;;;;;;;5073466;28;20059;-54
2021/08/24 12:33:29;;;;;;;9.80;1.90;;;;;;;;;;5072891;28;20473;-54
2021/08/24 12:35:55;;;;;;;4.88;1.80;;;;;;;;;;5072905;28;20122;-52
2021/08/24 12:39:03;;;;;;;10.32;2.00;;;;;;;;;;5071019;28;20634;-52
2021/08/24 12:41:32;;;;;;;4.13;1.70;;;;;;;;;;5024600;28;20058;-55
2021/08/24 12:44:09;;;;;;;5.00;1.80;;;;;;;;;;5027614;28;20048;-54
2021/08/24 12:46:36;;;;;;;3.88;1.63;;;;;;;;;;5078540;28;20114;-55
2021/08/24 12:49:17;;;;;;;6.30;1.90;;;;;;;;;;5072476;28;20038;-55
2021/08/24 12:51:50;;;;;;;4.53;1.60;;;;;;;;;;5067714;28;20110;-53
2021/08/24 12:54:18;;;;;;;5.07;1.55;;;;;;;;;;5060026;28;20457;-53
2021/08/24 12:56:48;;;;;;;4.47;1.70;;;;;;;;;;5057921;28;20358;-55
2021/08/24 12:59:30;;;;;;;4.82;1.67;;;;;;;;;;5058971;28;20044;-53
2021/08/24 13:02:22;;;;;;;4.35;1.50;;;;;;;;;;5058244;28;20197;-51
2021/08/24 13:04:49;;;;;;;3.95;1.50;;;;;;;;;;5054037;28;20123;-53
2021/08/24 13:07:21;;;;;;;3.92;1.58;;;;;;;;;;5059603;28;20493;-52
2021/08/24 13:09:49;;;;;;;4.13;1.45;;;;;;;;;;5058338;28;20036;-53
2021/08/24 13:12:16;;;;;;;11.63;1.58;;;;;;;;;;5058658;28;20040;-55
2021/08/24 13:14:53;;;;;;;3.92;1.63;;;;;;;;;;5058704;28;20090;-54
2021/08/24 13:17:22;;;;;;;4.47;1.77;;;;;;;;;;5057739;28;21852;-54
2021/08/24 13:19:53;;;;;;;3.65;1.50;;;;;;;;;;5057671;28;20523;-54
2021/08/24 13:22:25;;;;;;;5.18;1.55;;;;;;;;;;5058110;28;20174;-53
2021/08/24 13:24:51;;;;;;;3.20;1.30;;;;;;;;;;5059191;28;20047;-54
2021/08/24 13:27:17;;;;;;;4.95;1.48;;;;;;;;;;5058393;28;20040;-55
2021/08/24 13:29:43;;;;;;;4.05;1.67;;;;;;;;;;5059257;28;20513;-54
2021/08/24 13:32:35;;;;;;;4.30;1.33;;;;;;;;;;5059937;28;20085;-55
2021/08/24 13:35:02;;;;;;;3.90;1.30;;;;;;;;;;5049836;28;20040;-56
2021/08/24 13:37:39;;;;;;;4.10;1.55;;;;;;;;;;5058254;28;20032;-57
2021/08/24 13:40:09;;;;;;;4.55;1.45;;;;;;;;;;5059152;28;20053;-53
2021/08/24 13:42:40;;;;;;;3.50;1.40;;;;;;;;;;5059197;28;20036;-55
2021/08/24 13:45:10;;;;;;;4.45;1.20;;;;;;;;;;5059071;28;20036;-52
2021/08/24 13:47:36;;;;;;;7.20;1.60;;;;;;;;;;5054147;28;20151;-54
2021/08/24 13:50:02;;;;;;;3.33;1.35;;;;;;;;;;5057527;28;20036;-55
2021/08/24 13:52:38;;;;;;;3.85;1.50;;;;;;;;;;5057134;28;20512;-54
2021/08/24 13:55:24;;;;;;;4.28;1.30;;;;;;;;;;5058598;28;20037;-55
2021/08/24 13:57:49;;;;;;;6.03;1.45;;;;;;;;;;5056410;28;20056;-52
2021/08/24 14:00:20;;;;;;;3.80;1.35;;;;;;;;;;5058255;28;20147;-52
2021/08/24 14:02:49;;;;;;;4.38;1.35;;;;;;;;;;5056793;28;20044;-53
2021/08/24 14:05:19;;;;;;;6.35;1.95;;;;;;;;;;5057434;28;20097;-54
2021/08/24 14:07:50;;;;;;;4.10;1.38;;;;;;;;;;5057194;28;20210;-54
2021/08/24 14:10:21;;;;;;;4.20;1.40;;;;;;;;;;5058302;28;20041;-52
2021/08/24 14:12:49;;;;;;;3.30;1.33;;;;;;;;;;5057445;28;20044;-55
2021/08/24 14:15:41;;;;;;;4.82;1.35;;;;;;;;;;5057207;28;20040;-54
2021/08/24 14:18:14;;;;;;;3.90;1.50;;;;;;;;;;5055405;28;20113;-53
2021/08/24 14:20:45;;;;;;;3.20;1.20;;;;;;;;;;5057494;28;20076;-54
2021/08/24 14:23:14;;;;;;;3.65;1.20;;;;;;;;;;5058932;28;20032;-54
2021/08/24 14:25:43;;;;;;;5.32;1.50;;;;;;;;;;5057626;28;22053;-52
2021/08/24 14:28:14;;;;;;;3.55;1.23;;;;;;;;;;5055901;28;20040;-56
2021/08/24 14:30:43;;;;;;;4.22;1.48;;;;;;;;;;5056406;28;20127;-55
2021/08/24 14:33:16;;;;;;;6.75;1.50;;;;;;;;;;5057767;28;20227;-52
2021/08/24 14:35:42;;;;;;;;;;;;;;;;;;5057031;28;20052;-53
2021/08/24 14:38:08;;;;;;;3.75;1.33;;;;;;;;;;5056420;28;20433;-53
2021/08/24 14:40:35;;;;;;;5.53;1.95;;;;;;;;;;5047187;28;20076;-55
2021/08/24 14:43:03;;;;;;;4.30;1.60;;;;;;;;;;5037501;28;20770;-55
2021/08/24 14:45:30;;;;;;;4.50;1.40;;;;;;;;;;5037121;28;20033;-54
2021/08/24 14:48:06;;;;;;;3.72;1.30;;;;;;;;;;5037693;28;20470;-55
2021/08/24 14:50:41;;;;;;;4.80;1.60;;;;;;;;;;5036220;28;20107;-55
2021/08/24 14:53:09;;;;;;;8.30;1.50;;;;;;;;;;5036749;28;20505;-52
2021/08/24 14:55:37;;;;;;;2.70;1.08;;;;;;;;;;5037313;28;20041;-55
2021/08/24 14:58:08;;;;;;;3.90;1.40;;;;;;;;;;5037491;28;20040;-55